sensor_id;sensor_type;location;lat;lon;timestamp;P1;durP1;ratioP1;P2;durP2;ratioP2
74741;SDS011;76291;48.288;16.314;2024-03-25T00:00:18;2.4;;;1.3;;
74741;SDS011;76291;48.288;16.314;2024-03-25T00:01:18;3.2;;;1.4;;
74741;SDS011;76291;48.288;16.314;2024-03-25T00:02:18;3.2;;;1.4;;
74741;SDS011;76291;48.288;16.314;2024-03-25T00:03:18;3.2;;;1.4;;
74741;SDS011;76291;48.288;16.314;2024-03-25T00:04:18;3.2;;;1.4;;
74741;SDS011;76291;48.288;16.314;2024-03-25T00:05:18;3.2;;;1.4;;
74741;SDS011;76291;48.288;16.314;2024-03-25T00:06:18;1.8;;;1.2;;
74741;SDS011;76291;48.288;16.314;2024-03-25T00:07:18;1.8;;;1.2;;
74741;SDS011;76291;48.288;16.314;2024-03-25T00:08:18;1.8;;;1.2;;
74741;SDS011;76291;48.288;16.314;2024-03-25T00:09:18;1.8;;;1.2;;
74741;SDS011;76291;48.288;16.314;2024-03-25T00:10:18;1.8;;;1.2;;
74741;SDS011;76291;48.288;16.314;2024-03-25T00:11:18;2.1;;;1.1;;
74741;SDS011;76291;48.288;16.314;2024-03-25T00:12:18;2.1;;;1.1;;
74741;SDS011;76291;48.288;16.314;2024-03-25T00:13:18;2.1;;;1.1;;
74741;SDS011;76291;48.288;16.314;2024-03-25T00:14:18;2.1;;;1.1;;
74741;SDS011;76291;48.288;16.314;2024-03-25T00:15:18;2.1;;;1.1;;
74741;SDS011;76291;48.288;16.314;2024-03-25T00:16:18;1.6;;;1.3;;
74741;SDS011;76291;48.288;16.314;2024-03-25T00:17:18;1.6;;;1.3;;
74741;SDS011;76291;48.288;16.314;2024-03-25T00:18:18;1.6;;;1.3;;
74741;SDS011;76291;48.288;16.314;2024-03-25T00:19:17;1.6;;;1.3;;
74741;SDS011;76291;48.288;16.314;2024-03-25T00:20:17;1.6;;;1.3;;
74741;SDS011;76291;48.288;16.314;2024-03-25T00:21:17;1.5;;;1.2;;
74741;SDS011;76291;48.288;16.314;2024-03-25T00:22:18;1.5;;;1.2;;
74741;SDS011;76291;48.288;16.314;2024-03-25T00:23:17;1.5;;;1.2;;
74741;SDS011;76291;48.288;16.314;2024-03-25T00:24:17;1.5;;;1.2;;
74741;SDS011;76291;48.288;16.314;2024-03-25T00:26:00;2.5;;;1.2;;
74741;SDS011;76291;48.288;16.314;2024-03-25T00:27:00;2.5;;;1.2;;
74741;SDS011;76291;48.288;16.314;2024-03-25T00:28:00;2.5;;;1.2;;
74741;SDS011;76291;48.288;16.314;2024-03-25T00:29:00;2.5;;;1.2;;
74741;SDS011;76291;48.288;16.314;2024-03-25T00:30:00;2.5;;;1.2;;
74741;SDS011;76291;48.288;16.314;2024-03-25T00:31:00;1.6;;;1.2;;
74741;SDS011;76291;48.288;16.314;2024-03-25T00:32:00;1.6;;;1.2;;
74741;SDS011;76291;48.288;16.314;2024-03-25T00:33:00;1.6;;;1.2;;
74741;SDS011;76291;48.288;16.314;2024-03-25T00:34:00;1.6;;;1.2;;
74741;SDS011;76291;48.288;16.314;2024-03-25T00:35:00;1.6;;;1.2;;
74741;SDS011;76291;48.288;16.314;2024-03-25T00:36:00;1.4;;;1.1;;
74741;SDS011;76291;48.288;16.314;2024-03-25T00:37:00;1.4;;;1.1;;
74741;SDS011;76291;48.288;16.314;2024-03-25T00:38:00;1.4;;;1.1;;
74741;SDS011;76291;48.288;16.314;2024-03-25T00:39:00;1.4;;;1.1;;
74741;SDS011;76291;48.288;16.314;2024-03-25T00:40:00;1.4;;;1.1;;
74741;SDS011;76291;48.288;16.314;2024-03-25T00:41:00;2.1;;;1.1;;
74741;SDS011;76291;48.288;16.314;2024-03-25T00:42:00;2.1;;;1.1;;
74741;SDS011;76291;48.288;16.314;2024-03-25T00:43:00;2.1;;;1.1;;
74741;SDS011;76291;48.288;16.314;2024-03-25T00:44:00;2.1;;;1.1;;
74741;SDS011;76291;48.288;16.314;2024-03-25T00:45:00;2.1;;;1.1;;
74741;SDS011;76291;48.288;16.314;2024-03-25T00:46:00;1.4;;;1.3;;
74741;SDS011;76291;48.288;16.314;2024-03-25T00:47:00;1.4;;;1.3;;
74741;SDS011;76291;48.288;16.314;2024-03-25T00:48:00;1.4;;;1.3;;
74741;SDS011;76291;48.288;16.314;2024-03-25T00:48:59;1.4;;;1.3;;
74741;SDS011;76291;48.288;16.314;2024-03-25T00:49:59;1.4;;;1.3;;
74741;SDS011;76291;48.288;16.314;2024-03-25T00:50:59;2.0;;;1.2;;
74741;SDS011;76291;48.288;16.314;2024-03-25T00:51:59;2.0;;;1.2;;
74741;SDS011;76291;48.288;16.314;2024-03-25T00:52:59;2.0;;;1.2;;
74741;SDS011;76291;48.288;16.314;2024-03-25T00:53:59;2.0;;;1.2;;
74741;SDS011;76291;48.288;16.314;2024-03-25T00:54:59;2.0;;;1.2;;
74741;SDS011;76291;48.288;16.314;2024-03-25T00:55:59;1.9;;;1.4;;
74741;SDS011;76291;48.288;16.314;2024-03-25T00:57:00;1.9;;;1.4;;
74741;SDS011;76291;48.288;16.314;2024-03-25T00:57:59;1.9;;;1.4;;
74741;SDS011;76291;48.288;16.314;2024-03-25T00:58:59;1.9;;;1.4;;
74741;SDS011;76291;48.288;16.314;2024-03-25T00:59:59;1.9;;;1.4;;
74741;SDS011;76291;48.288;16.314;2024-03-25T01:00:59;1.9;;;1.2;;
74741;SDS011;76291;48.288;16.314;2024-03-25T01:01:59;1.9;;;1.2;;
74741;SDS011;76291;48.288;16.314;2024-03-25T01:02:59;1.9;;;1.2;;
74741;SDS011;76291;48.288;16.314;2024-03-25T01:03:59;1.9;;;1.2;;
74741;SDS011;76291;48.288;16.314;2024-03-25T01:04:59;1.9;;;1.2;;
74741;SDS011;76291;48.288;16.314;2024-03-25T01:05:59;1.4;;;1.2;;
74741;SDS011;76291;48.288;16.314;2024-03-25T01:06:59;1.4;;;1.2;;
74741;SDS011;76291;48.288;16.314;2024-03-25T01:07:59;1.4;;;1.2;;
74741;SDS011;76291;48.288;16.314;2024-03-25T01:08:59;1.4;;;1.2;;
74741;SDS011;76291;48.288;16.314;2024-03-25T01:09:59;1.4;;;1.2;;
74741;SDS011;76291;48.288;16.314;2024-03-25T01:10:59;1.4;;;1.2;;
74741;SDS011;76291;48.288;16.314;2024-03-25T01:11:59;1.4;;;1.2;;
74741;SDS011;76291;48.288;16.314;2024-03-25T01:12:59;1.4;;;1.2;;
74741;SDS011;76291;48.288;16.314;2024-03-25T01:13:59;1.4;;;1.2;;
74741;SDS011;76291;48.288;16.314;2024-03-25T01:14:59;1.4;;;1.2;;
74741;SDS011;76291;48.288;16.314;2024-03-25T01:15:59;3.2;;;1.4;;
74741;SDS011;76291;48.288;16.314;2024-03-25T01:16:59;3.2;;;1.4;;
74741;SDS011;76291;48.288;16.314;2024-03-25T01:17:59;3.2;;;1.4;;
74741;SDS011;76291;48.288;16.314;2024-03-25T01:18:59;3.2;;;1.4;;
74741;SDS011;76291;48.288;16.314;2024-03-25T01:19:59;3.2;;;1.4;;
74741;SDS011;76291;48.288;16.314;2024-03-25T01:20:58;2.0;;;1.3;;
74741;SDS011;76291;48.288;16.314;2024-03-25T01:21:59;2.0;;;1.3;;
74741;SDS011;76291;48.288;16.314;2024-03-25T01:22:58;2.0;;;1.3;;
74741;SDS011;76291;48.288;16.314;2024-03-25T01:23:58;2.0;;;1.3;;
74741;SDS011;76291;48.288;16.314;2024-03-25T01:24:58;2.0;;;1.3;;
74741;SDS011;76291;48.288;16.314;2024-03-25T01:25:58;2.0;;;1.3;;
74741;SDS011;76291;48.288;16.314;2024-03-25T01:26:58;2.0;;;1.3;;
74741;SDS011;76291;48.288;16.314;2024-03-25T01:27:58;2.0;;;1.3;;
74741;SDS011;76291;48.288;16.314;2024-03-25T01:28:58;2.0;;;1.3;;
74741;SDS011;76291;48.288;16.314;2024-03-25T01:29:58;2.0;;;1.3;;
74741;SDS011;76291;48.288;16.314;2024-03-25T01:30:58;2.5;;;1.5;;
74741;SDS011;76291;48.288;16.314;2024-03-25T01:31:58;2.5;;;1.5;;
74741;SDS011;76291;48.288;16.314;2024-03-25T01:32:58;2.5;;;1.5;;
74741;SDS011;76291;48.288;16.314;2024-03-25T01:33:58;2.5;;;1.5;;
74741;SDS011;76291;48.288;16.314;2024-03-25T01:34:58;2.5;;;1.5;;
74741;SDS011;76291;48.288;16.314;2024-03-25T01:35:58;1.9;;;1.6;;
74741;SDS011;76291;48.288;16.314;2024-03-25T01:36:58;1.9;;;1.6;;
74741;SDS011;76291;48.288;16.314;2024-03-25T01:37:58;1.9;;;1.6;;
74741;SDS011;76291;48.288;16.314;2024-03-25T01:38:59;1.9;;;1.6;;
74741;SDS011;76291;48.288;16.314;2024-03-25T01:39:58;1.9;;;1.6;;
74741;SDS011;76291;48.288;16.314;2024-03-25T01:41:13;2.0;;;1.5;;
74741;SDS011;76291;48.288;16.314;2024-03-25T01:41:58;2.0;;;1.5;;
74741;SDS011;76291;48.288;16.314;2024-03-25T01:42:59;2.0;;;1.5;;
74741;SDS011;76291;48.288;16.314;2024-03-25T01:43:58;2.0;;;1.5;;
74741;SDS011;76291;48.288;16.314;2024-03-25T01:44:58;2.0;;;1.5;;
74741;SDS011;76291;48.288;16.314;2024-03-25T01:45:58;2.3;;;1.5;;
74741;SDS011;76291;48.288;16.314;2024-03-25T01:46:58;2.3;;;1.5;;
74741;SDS011;76291;48.288;16.314;2024-03-25T01:47:59;2.3;;;1.5;;
74741;SDS011;76291;48.288;16.314;2024-03-25T01:48:58;2.3;;;1.5;;
74741;SDS011;76291;48.288;16.314;2024-03-25T01:49:58;2.3;;;1.5;;
74741;SDS011;76291;48.288;16.314;2024-03-25T01:51:00;3.5;;;1.8;;
74741;SDS011;76291;48.288;16.314;2024-03-25T01:51:58;3.5;;;1.8;;
74741;SDS011;76291;48.288;16.314;2024-03-25T01:52:58;3.5;;;1.8;;
74741;SDS011;76291;48.288;16.314;2024-03-25T01:53:58;3.5;;;1.8;;
74741;SDS011;76291;48.288;16.314;2024-03-25T01:54:57;3.5;;;1.8;;
74741;SDS011;76291;48.288;16.314;2024-03-25T01:55:58;2.9;;;1.6;;
74741;SDS011;76291;48.288;16.314;2024-03-25T01:56:58;2.9;;;1.6;;
74741;SDS011;76291;48.288;16.314;2024-03-25T01:57:57;2.9;;;1.6;;
74741;SDS011;76291;48.288;16.314;2024-03-25T01:58:57;2.9;;;1.6;;
74741;SDS011;76291;48.288;16.314;2024-03-25T01:59:57;2.9;;;1.6;;
74741;SDS011;76291;48.288;16.314;2024-03-25T02:00:58;1.9;;;1.5;;
74741;SDS011;76291;48.288;16.314;2024-03-25T02:01:57;1.9;;;1.5;;
74741;SDS011;76291;48.288;16.314;2024-03-25T02:02:58;1.9;;;1.5;;
74741;SDS011;76291;48.288;16.314;2024-03-25T02:03:57;1.9;;;1.5;;
74741;SDS011;76291;48.288;16.314;2024-03-25T02:04:57;1.9;;;1.5;;
74741;SDS011;76291;48.288;16.314;2024-03-25T02:06:01;2.3;;;1.4;;
74741;SDS011;76291;48.288;16.314;2024-03-25T02:06:57;2.3;;;1.4;;
74741;SDS011;76291;48.288;16.314;2024-03-25T02:07:58;2.3;;;1.4;;
74741;SDS011;76291;48.288;16.314;2024-03-25T02:08:57;2.3;;;1.4;;
74741;SDS011;76291;48.288;16.314;2024-03-25T02:09:57;2.3;;;1.4;;
74741;SDS011;76291;48.288;16.314;2024-03-25T02:10:58;2.7;;;1.5;;
74741;SDS011;76291;48.288;16.314;2024-03-25T02:11:57;2.7;;;1.5;;
74741;SDS011;76291;48.288;16.314;2024-03-25T02:12:57;2.7;;;1.5;;
74741;SDS011;76291;48.288;16.314;2024-03-25T02:13:57;2.7;;;1.5;;
74741;SDS011;76291;48.288;16.314;2024-03-25T02:14:58;2.7;;;1.5;;
74741;SDS011;76291;48.288;16.314;2024-03-25T02:15:57;2.3;;;1.5;;
74741;SDS011;76291;48.288;16.314;2024-03-25T02:16:57;2.3;;;1.5;;
74741;SDS011;76291;48.288;16.314;2024-03-25T02:17:57;2.3;;;1.5;;
74741;SDS011;76291;48.288;16.314;2024-03-25T02:18:57;2.3;;;1.5;;
74741;SDS011;76291;48.288;16.314;2024-03-25T02:19:57;2.3;;;1.5;;
74741;SDS011;76291;48.288;16.314;2024-03-25T02:20:58;1.9;;;1.2;;
74741;SDS011;76291;48.288;16.314;2024-03-25T02:21:57;1.9;;;1.2;;
74741;SDS011;76291;48.288;16.314;2024-03-25T02:22:57;1.9;;;1.2;;
74741;SDS011;76291;48.288;16.314;2024-03-25T02:23:59;1.9;;;1.2;;
74741;SDS011;76291;48.288;16.314;2024-03-25T02:24:57;1.9;;;1.2;;
74741;SDS011;76291;48.288;16.314;2024-03-25T02:25:57;1.5;;;1.2;;
74741;SDS011;76291;48.288;16.314;2024-03-25T02:26:57;1.5;;;1.2;;
74741;SDS011;76291;48.288;16.314;2024-03-25T02:27:56;1.5;;;1.2;;
74741;SDS011;76291;48.288;16.314;2024-03-25T02:28:56;1.5;;;1.2;;
74741;SDS011;76291;48.288;16.314;2024-03-25T02:30:56;2.3;;;1.4;;
74741;SDS011;76291;48.288;16.314;2024-03-25T02:31:56;2.3;;;1.4;;
74741;SDS011;76291;48.288;16.314;2024-03-25T02:32:56;2.3;;;1.4;;
74741;SDS011;76291;48.288;16.314;2024-03-25T02:33:56;2.3;;;1.4;;
74741;SDS011;76291;48.288;16.314;2024-03-25T02:34:56;2.3;;;1.4;;
74741;SDS011;76291;48.288;16.314;2024-03-25T02:35:56;2.4;;;1.6;;
74741;SDS011;76291;48.288;16.314;2024-03-25T02:36:56;2.4;;;1.6;;
74741;SDS011;76291;48.288;16.314;2024-03-25T02:37:56;2.4;;;1.6;;
74741;SDS011;76291;48.288;16.314;2024-03-25T02:38:56;2.4;;;1.6;;
74741;SDS011;76291;48.288;16.314;2024-03-25T02:39:58;2.4;;;1.6;;
74741;SDS011;76291;48.288;16.314;2024-03-25T02:40:56;2.5;;;1.7;;
74741;SDS011;76291;48.288;16.314;2024-03-25T02:41:56;2.5;;;1.7;;
74741;SDS011;76291;48.288;16.314;2024-03-25T02:42:56;2.5;;;1.7;;
74741;SDS011;76291;48.288;16.314;2024-03-25T02:43:57;2.5;;;1.7;;
74741;SDS011;76291;48.288;16.314;2024-03-25T02:44:56;2.5;;;1.7;;
74741;SDS011;76291;48.288;16.314;2024-03-25T02:45:56;3.2;;;1.8;;
74741;SDS011;76291;48.288;16.314;2024-03-25T02:46:56;3.2;;;1.8;;
74741;SDS011;76291;48.288;16.314;2024-03-25T02:47:56;3.2;;;1.8;;
74741;SDS011;76291;48.288;16.314;2024-03-25T02:48:56;3.2;;;1.8;;
74741;SDS011;76291;48.288;16.314;2024-03-25T02:49:56;3.2;;;1.8;;
74741;SDS011;76291;48.288;16.314;2024-03-25T02:50:56;2.1;;;1.8;;
74741;SDS011;76291;48.288;16.314;2024-03-25T02:51:56;2.1;;;1.8;;
74741;SDS011;76291;48.288;16.314;2024-03-25T02:52:56;2.1;;;1.8;;
74741;SDS011;76291;48.288;16.314;2024-03-25T02:53:56;2.1;;;1.8;;
74741;SDS011;76291;48.288;16.314;2024-03-25T02:54:56;2.1;;;1.8;;
74741;SDS011;76291;48.288;16.314;2024-03-25T02:55:56;2.0;;;1.7;;
74741;SDS011;76291;48.288;16.314;2024-03-25T02:56:56;2.0;;;1.7;;
74741;SDS011;76291;48.288;16.314;2024-03-25T02:57:56;2.0;;;1.7;;
74741;SDS011;76291;48.288;16.314;2024-03-25T02:58:56;2.0;;;1.7;;
74741;SDS011;76291;48.288;16.314;2024-03-25T02:59:56;2.0;;;1.7;;
74741;SDS011;76291;48.288;16.314;2024-03-25T03:00:56;2.7;;;1.8;;
74741;SDS011;76291;48.288;16.314;2024-03-25T03:01:59;2.7;;;1.8;;
74741;SDS011;76291;48.288;16.314;2024-03-25T03:02:55;2.7;;;1.8;;
74741;SDS011;76291;48.288;16.314;2024-03-25T03:03:55;2.7;;;1.8;;
74741;SDS011;76291;48.288;16.314;2024-03-25T03:04:55;2.7;;;1.8;;
74741;SDS011;76291;48.288;16.314;2024-03-25T03:05:55;3.7;;;2.1;;
74741;SDS011;76291;48.288;16.314;2024-03-25T03:06:56;3.7;;;2.1;;
74741;SDS011;76291;48.288;16.314;2024-03-25T03:07:55;3.7;;;2.1;;
74741;SDS011;76291;48.288;16.314;2024-03-25T03:08:55;3.7;;;2.1;;
74741;SDS011;76291;48.288;16.314;2024-03-25T03:09:55;3.7;;;2.1;;
74741;SDS011;76291;48.288;16.314;2024-03-25T03:10:55;3.2;;;2.1;;
74741;SDS011;76291;48.288;16.314;2024-03-25T03:11:55;3.2;;;2.1;;
74741;SDS011;76291;48.288;16.314;2024-03-25T03:13:55;3.2;;;2.1;;
74741;SDS011;76291;48.288;16.314;2024-03-25T03:14:55;3.2;;;2.1;;
74741;SDS011;76291;48.288;16.314;2024-03-25T03:15:55;2.9;;;2.3;;
74741;SDS011;76291;48.288;16.314;2024-03-25T03:16:55;2.9;;;2.3;;
74741;SDS011;76291;48.288;16.314;2024-03-25T03:17:55;2.9;;;2.3;;
74741;SDS011;76291;48.288;16.314;2024-03-25T03:18:55;2.9;;;2.3;;
74741;SDS011;76291;48.288;16.314;2024-03-25T03:19:55;2.9;;;2.3;;
74741;SDS011;76291;48.288;16.314;2024-03-25T03:20:55;3.5;;;2.5;;
74741;SDS011;76291;48.288;16.314;2024-03-25T03:21:55;3.5;;;2.5;;
74741;SDS011;76291;48.288;16.314;2024-03-25T03:22:55;3.5;;;2.5;;
74741;SDS011;76291;48.288;16.314;2024-03-25T03:23:55;3.5;;;2.5;;
74741;SDS011;76291;48.288;16.314;2024-03-25T03:24:55;3.5;;;2.5;;
74741;SDS011;76291;48.288;16.314;2024-03-25T03:25:55;3.0;;;2.3;;
74741;SDS011;76291;48.288;16.314;2024-03-25T03:26:55;3.0;;;2.3;;
74741;SDS011;76291;48.288;16.314;2024-03-25T03:27:55;3.0;;;2.3;;
74741;SDS011;76291;48.288;16.314;2024-03-25T03:28:55;3.0;;;2.3;;
74741;SDS011;76291;48.288;16.314;2024-03-25T03:29:55;3.0;;;2.3;;
74741;SDS011;76291;48.288;16.314;2024-03-25T03:30:55;3.3;;;2.3;;
74741;SDS011;76291;48.288;16.314;2024-03-25T03:31:55;3.3;;;2.3;;
74741;SDS011;76291;48.288;16.314;2024-03-25T03:32:55;3.3;;;2.3;;
74741;SDS011;76291;48.288;16.314;2024-03-25T03:33:55;3.3;;;2.3;;
74741;SDS011;76291;48.288;16.314;2024-03-25T03:34:54;3.3;;;2.3;;
74741;SDS011;76291;48.288;16.314;2024-03-25T03:35:57;4.5;;;2.5;;
74741;SDS011;76291;48.288;16.314;2024-03-25T03:36:54;4.5;;;2.5;;
74741;SDS011;76291;48.288;16.314;2024-03-25T03:37:54;4.5;;;2.5;;
74741;SDS011;76291;48.288;16.314;2024-03-25T03:38:54;4.5;;;2.5;;
74741;SDS011;76291;48.288;16.314;2024-03-25T03:39:54;4.5;;;2.5;;
74741;SDS011;76291;48.288;16.314;2024-03-25T03:40:59;2.5;;;2.2;;
74741;SDS011;76291;48.288;16.314;2024-03-25T03:41:54;2.5;;;2.2;;
74741;SDS011;76291;48.288;16.314;2024-03-25T03:42:55;2.5;;;2.2;;
74741;SDS011;76291;48.288;16.314;2024-03-25T03:43:54;2.5;;;2.2;;
74741;SDS011;76291;48.288;16.314;2024-03-25T03:44:55;2.5;;;2.2;;
74741;SDS011;76291;48.288;16.314;2024-03-25T03:45:54;3.6;;;2.2;;
74741;SDS011;76291;48.288;16.314;2024-03-25T03:46:54;3.6;;;2.2;;
74741;SDS011;76291;48.288;16.314;2024-03-25T03:47:54;3.6;;;2.2;;
74741;SDS011;76291;48.288;16.314;2024-03-25T03:48:54;3.6;;;2.2;;
74741;SDS011;76291;48.288;16.314;2024-03-25T03:49:54;3.6;;;2.2;;
74741;SDS011;76291;48.288;16.314;2024-03-25T03:50:54;3.2;;;2.1;;
74741;SDS011;76291;48.288;16.314;2024-03-25T03:51:54;3.2;;;2.1;;
74741;SDS011;76291;48.288;16.314;2024-03-25T03:52:54;3.2;;;2.1;;
74741;SDS011;76291;48.288;16.314;2024-03-25T03:53:54;3.2;;;2.1;;
74741;SDS011;76291;48.288;16.314;2024-03-25T03:54:54;3.2;;;2.1;;
74741;SDS011;76291;48.288;16.314;2024-03-25T03:55:57;3.4;;;2.2;;
74741;SDS011;76291;48.288;16.314;2024-03-25T03:56:54;3.4;;;2.2;;
74741;SDS011;76291;48.288;16.314;2024-03-25T03:57:54;3.4;;;2.2;;
74741;SDS011;76291;48.288;16.314;2024-03-25T03:58:54;3.4;;;2.2;;
74741;SDS011;76291;48.288;16.314;2024-03-25T03:59:54;3.4;;;2.2;;
74741;SDS011;76291;48.288;16.314;2024-03-25T04:00:54;3.9;;;2.1;;
74741;SDS011;76291;48.288;16.314;2024-03-25T04:01:54;3.9;;;2.1;;
74741;SDS011;76291;48.288;16.314;2024-03-25T04:02:54;3.9;;;2.1;;
74741;SDS011;76291;48.288;16.314;2024-03-25T04:03:54;3.9;;;2.1;;
74741;SDS011;76291;48.288;16.314;2024-03-25T04:04:54;3.9;;;2.1;;
74741;SDS011;76291;48.288;16.314;2024-03-25T04:05:54;2.6;;;2.0;;
74741;SDS011;76291;48.288;16.314;2024-03-25T04:06:54;2.6;;;2.0;;
74741;SDS011;76291;48.288;16.314;2024-03-25T04:07:54;2.6;;;2.0;;
74741;SDS011;76291;48.288;16.314;2024-03-25T04:08:53;2.6;;;2.0;;
74741;SDS011;76291;48.288;16.314;2024-03-25T04:09:54;2.6;;;2.0;;
74741;SDS011;76291;48.288;16.314;2024-03-25T04:10:54;3.8;;;2.3;;
74741;SDS011;76291;48.288;16.314;2024-03-25T04:11:53;3.8;;;2.3;;
74741;SDS011;76291;48.288;16.314;2024-03-25T04:12:53;3.8;;;2.3;;
74741;SDS011;76291;48.288;16.314;2024-03-25T04:13:53;3.8;;;2.3;;
74741;SDS011;76291;48.288;16.314;2024-03-25T04:14:53;3.8;;;2.3;;
74741;SDS011;76291;48.288;16.314;2024-03-25T04:15:54;4.3;;;2.3;;
74741;SDS011;76291;48.288;16.314;2024-03-25T04:16:53;4.3;;;2.3;;
74741;SDS011;76291;48.288;16.314;2024-03-25T04:17:53;4.3;;;2.3;;
74741;SDS011;76291;48.288;16.314;2024-03-25T04:18:53;4.3;;;2.3;;
74741;SDS011;76291;48.288;16.314;2024-03-25T04:19:53;4.3;;;2.3;;
74741;SDS011;76291;48.288;16.314;2024-03-25T04:20:53;3.5;;;2.5;;
74741;SDS011;76291;48.288;16.314;2024-03-25T04:21:53;3.5;;;2.5;;
74741;SDS011;76291;48.288;16.314;2024-03-25T04:22:55;3.5;;;2.5;;
74741;SDS011;76291;48.288;16.314;2024-03-25T04:23:53;3.5;;;2.5;;
74741;SDS011;76291;48.288;16.314;2024-03-25T04:24:53;3.5;;;2.5;;
74741;SDS011;76291;48.288;16.314;2024-03-25T04:25:53;4.8;;;2.3;;
74741;SDS011;76291;48.288;16.314;2024-03-25T04:26:53;4.8;;;2.3;;
74741;SDS011;76291;48.288;16.314;2024-03-25T04:27:53;4.8;;;2.3;;
74741;SDS011;76291;48.288;16.314;2024-03-25T04:28:53;4.8;;;2.3;;
74741;SDS011;76291;48.288;16.314;2024-03-25T04:29:53;4.8;;;2.3;;
74741;SDS011;76291;48.288;16.314;2024-03-25T04:30:53;2.6;;;2.2;;
74741;SDS011;76291;48.288;16.314;2024-03-25T04:31:53;2.6;;;2.2;;
74741;SDS011;76291;48.288;16.314;2024-03-25T04:32:53;2.6;;;2.2;;
74741;SDS011;76291;48.288;16.314;2024-03-25T04:33:53;2.6;;;2.2;;
74741;SDS011;76291;48.288;16.314;2024-03-25T04:34:53;2.6;;;2.2;;
74741;SDS011;76291;48.288;16.314;2024-03-25T04:35:53;4.1;;;2.4;;
74741;SDS011;76291;48.288;16.314;2024-03-25T04:36:53;4.1;;;2.4;;
74741;SDS011;76291;48.288;16.314;2024-03-25T04:37:53;4.1;;;2.4;;
74741;SDS011;76291;48.288;16.314;2024-03-25T04:38:53;4.1;;;2.4;;
74741;SDS011;76291;48.288;16.314;2024-03-25T04:39:53;4.1;;;2.4;;
74741;SDS011;76291;48.288;16.314;2024-03-25T04:40:53;3.3;;;2.2;;
74741;SDS011;76291;48.288;16.314;2024-03-25T04:41:52;3.3;;;2.2;;
74741;SDS011;76291;48.288;16.314;2024-03-25T04:42:52;3.3;;;2.2;;
74741;SDS011;76291;48.288;16.314;2024-03-25T04:43:52;3.3;;;2.2;;
74741;SDS011;76291;48.288;16.314;2024-03-25T04:44:52;3.3;;;2.2;;
74741;SDS011;76291;48.288;16.314;2024-03-25T04:45:52;3.0;;;2.4;;
74741;SDS011;76291;48.288;16.314;2024-03-25T04:46:52;3.0;;;2.4;;
74741;SDS011;76291;48.288;16.314;2024-03-25T04:47:52;3.0;;;2.4;;
74741;SDS011;76291;48.288;16.314;2024-03-25T04:48:52;3.0;;;2.4;;
74741;SDS011;76291;48.288;16.314;2024-03-25T04:49:52;3.0;;;2.4;;
74741;SDS011;76291;48.288;16.314;2024-03-25T04:50:52;5.4;;;2.3;;
74741;SDS011;76291;48.288;16.314;2024-03-25T04:51:52;5.4;;;2.3;;
74741;SDS011;76291;48.288;16.314;2024-03-25T04:52:52;5.4;;;2.3;;
74741;SDS011;76291;48.288;16.314;2024-03-25T04:53:52;5.4;;;2.3;;
74741;SDS011;76291;48.288;16.314;2024-03-25T04:54:52;5.4;;;2.3;;
74741;SDS011;76291;48.288;16.314;2024-03-25T04:55:52;4.4;;;2.4;;
74741;SDS011;76291;48.288;16.314;2024-03-25T04:56:54;4.4;;;2.4;;
74741;SDS011;76291;48.288;16.314;2024-03-25T04:57:53;4.4;;;2.4;;
74741;SDS011;76291;48.288;16.314;2024-03-25T04:58:52;4.4;;;2.4;;
74741;SDS011;76291;48.288;16.314;2024-03-25T04:59:52;4.4;;;2.4;;
74741;SDS011;76291;48.288;16.314;2024-03-25T05:00:52;4.7;;;2.5;;
74741;SDS011;76291;48.288;16.314;2024-03-25T05:01:52;4.7;;;2.5;;
74741;SDS011;76291;48.288;16.314;2024-03-25T05:02:52;4.7;;;2.5;;
74741;SDS011;76291;48.288;16.314;2024-03-25T05:03:52;4.7;;;2.5;;
74741;SDS011;76291;48.288;16.314;2024-03-25T05:04:52;4.7;;;2.5;;
74741;SDS011;76291;48.288;16.314;2024-03-25T05:05:52;4.4;;;2.3;;
74741;SDS011;76291;48.288;16.314;2024-03-25T05:06:52;4.4;;;2.3;;
74741;SDS011;76291;48.288;16.314;2024-03-25T05:07:52;4.4;;;2.3;;
74741;SDS011;76291;48.288;16.314;2024-03-25T05:08:52;4.4;;;2.3;;
74741;SDS011;76291;48.288;16.314;2024-03-25T05:09:52;4.4;;;2.3;;
74741;SDS011;76291;48.288;16.314;2024-03-25T05:10:52;3.6;;;2.4;;
74741;SDS011;76291;48.288;16.314;2024-03-25T05:11:52;3.6;;;2.4;;
74741;SDS011;76291;48.288;16.314;2024-03-25T05:12:52;3.6;;;2.4;;
74741;SDS011;76291;48.288;16.314;2024-03-25T05:13:52;3.6;;;2.4;;
74741;SDS011;76291;48.288;16.314;2024-03-25T05:14:52;3.6;;;2.4;;
74741;SDS011;76291;48.288;16.314;2024-03-25T05:15:52;3.5;;;2.4;;
74741;SDS011;76291;48.288;16.314;2024-03-25T05:16:51;3.5;;;2.4;;
74741;SDS011;76291;48.288;16.314;2024-03-25T05:17:51;3.5;;;2.4;;
74741;SDS011;76291;48.288;16.314;2024-03-25T05:18:51;3.5;;;2.4;;
74741;SDS011;76291;48.288;16.314;2024-03-25T05:19:51;3.5;;;2.4;;
74741;SDS011;76291;48.288;16.314;2024-03-25T05:20:51;3.2;;;2.2;;
74741;SDS011;76291;48.288;16.314;2024-03-25T05:21:51;3.2;;;2.2;;
74741;SDS011;76291;48.288;16.314;2024-03-25T05:22:51;3.2;;;2.2;;
74741;SDS011;76291;48.288;16.314;2024-03-25T05:23:51;3.2;;;2.2;;
74741;SDS011;76291;48.288;16.314;2024-03-25T05:24:51;3.2;;;2.2;;
74741;SDS011;76291;48.288;16.314;2024-03-25T05:25:51;4.0;;;2.5;;
74741;SDS011;76291;48.288;16.314;2024-03-25T05:26:51;4.0;;;2.5;;
74741;SDS011;76291;48.288;16.314;2024-03-25T05:27:51;4.0;;;2.5;;
74741;SDS011;76291;48.288;16.314;2024-03-25T05:28:53;4.0;;;2.5;;
74741;SDS011;76291;48.288;16.314;2024-03-25T05:29:51;4.0;;;2.5;;
74741;SDS011;76291;48.288;16.314;2024-03-25T05:30:51;3.8;;;2.5;;
74741;SDS011;76291;48.288;16.314;2024-03-25T05:32:00;3.8;;;2.5;;
74741;SDS011;76291;48.288;16.314;2024-03-25T05:32:51;3.8;;;2.5;;
74741;SDS011;76291;48.288;16.314;2024-03-25T05:33:51;3.8;;;2.5;;
74741;SDS011;76291;48.288;16.314;2024-03-25T05:34:51;3.8;;;2.5;;
74741;SDS011;76291;48.288;16.314;2024-03-25T05:35:51;3.4;;;2.4;;
74741;SDS011;76291;48.288;16.314;2024-03-25T05:36:51;3.4;;;2.4;;
74741;SDS011;76291;48.288;16.314;2024-03-25T05:37:51;3.4;;;2.4;;
74741;SDS011;76291;48.288;16.314;2024-03-25T05:38:51;3.4;;;2.4;;
74741;SDS011;76291;48.288;16.314;2024-03-25T05:39:51;3.4;;;2.4;;
74741;SDS011;76291;48.288;16.314;2024-03-25T05:40:51;4.1;;;2.8;;
74741;SDS011;76291;48.288;16.314;2024-03-25T05:41:51;4.1;;;2.8;;
74741;SDS011;76291;48.288;16.314;2024-03-25T05:42:51;4.1;;;2.8;;
74741;SDS011;76291;48.288;16.314;2024-03-25T05:43:51;4.1;;;2.8;;
74741;SDS011;76291;48.288;16.314;2024-03-25T05:44:51;4.1;;;2.8;;
74741;SDS011;76291;48.288;16.314;2024-03-25T05:45:51;3.2;;;2.4;;
74741;SDS011;76291;48.288;16.314;2024-03-25T05:46:51;3.2;;;2.4;;
74741;SDS011;76291;48.288;16.314;2024-03-25T05:47:51;3.2;;;2.4;;
74741;SDS011;76291;48.288;16.314;2024-03-25T05:48:51;3.2;;;2.4;;
74741;SDS011;76291;48.288;16.314;2024-03-25T05:49:50;3.2;;;2.4;;
74741;SDS011;76291;48.288;16.314;2024-03-25T05:51:07;3.5;;;2.5;;
74741;SDS011;76291;48.288;16.314;2024-03-25T05:51:50;3.5;;;2.5;;
74741;SDS011;76291;48.288;16.314;2024-03-25T05:52:50;3.5;;;2.5;;
74741;SDS011;76291;48.288;16.314;2024-03-25T05:53:50;3.5;;;2.5;;
74741;SDS011;76291;48.288;16.314;2024-03-25T05:54:50;3.5;;;2.5;;
74741;SDS011;76291;48.288;16.314;2024-03-25T05:55:50;3.9;;;2.6;;
74741;SDS011;76291;48.288;16.314;2024-03-25T05:56:50;3.9;;;2.6;;
74741;SDS011;76291;48.288;16.314;2024-03-25T05:57:50;3.9;;;2.6;;
74741;SDS011;76291;48.288;16.314;2024-03-25T05:58:50;3.9;;;2.6;;
74741;SDS011;76291;48.288;16.314;2024-03-25T05:59:50;3.9;;;2.6;;
74741;SDS011;76291;48.288;16.314;2024-03-25T06:00:51;5.8;;;2.5;;
74741;SDS011;76291;48.288;16.314;2024-03-25T06:01:50;5.8;;;2.5;;
74741;SDS011;76291;48.288;16.314;2024-03-25T06:02:50;5.8;;;2.5;;
74741;SDS011;76291;48.288;16.314;2024-03-25T06:03:50;5.8;;;2.5;;
74741;SDS011;76291;48.288;16.314;2024-03-25T06:04:50;5.8;;;2.5;;
74741;SDS011;76291;48.288;16.314;2024-03-25T06:05:50;4.8;;;2.5;;
74741;SDS011;76291;48.288;16.314;2024-03-25T06:06:50;4.8;;;2.5;;
74741;SDS011;76291;48.288;16.314;2024-03-25T06:07:50;4.8;;;2.5;;
74741;SDS011;76291;48.288;16.314;2024-03-25T06:08:50;4.8;;;2.5;;